createdAt,value
2018-07-24T00:00:50.241Z,94.26
2018-07-24T00:01:50.259Z,93.31
2018-07-24T00:02:50.284Z,93.79
2018-07-24T00:03:50.298Z,93.88
2018-07-24T00:04:50.321Z,93.40
2018-07-24T00:05:50.337Z,93.40
2018-07-24T00:06:50.357Z,93.02
2018-07-24T00:07:50.377Z,93.02
2018-07-24T00:08:50.395Z,93.69
2018-07-24T00:09:50.417Z,94.36
2018-07-24T00:10:50.438Z,93.60
2018-07-24T00:11:50.455Z,93.31
2018-07-24T00:12:50.475Z,94.07
2018-07-24T00:13:50.496Z,93.40
2018-07-24T00:14:50.512Z,93.21
2018-07-24T00:15:50.533Z,92.74
2018-07-24T00:16:50.553Z,92.35
2018-07-24T00:17:50.571Z,91.78
2018-07-24T00:18:50.595Z,91.39
2018-07-24T00:19:50.612Z,92.45
2018-07-24T00:20:50.630Z,91.68
2018-07-24T00:21:50.650Z,91.59
2018-07-24T00:22:50.676Z,92.35
2018-07-24T00:23:50.692Z,92.07
2018-07-24T00:24:50.710Z,91.97
2018-07-24T00:25:50.728Z,92.25
2018-07-24T00:26:50.751Z,92.45
2018-07-24T00:27:50.770Z,92.35
2018-07-24T00:28:50.787Z,92.93
2018-07-24T00:29:50.804Z,92.25
2018-07-24T00:30:50.828Z,93.02
2018-07-24T00:31:50.846Z,93.02
2018-07-24T00:32:50.866Z,93.02
2018-07-24T00:33:50.886Z,93.21
2018-07-24T00:34:50.903Z,93.21
2018-07-24T00:35:50.957Z,92.25
2018-07-24T00:36:50.942Z,91.68
2018-07-24T00:37:50.964Z,92.54
2018-07-24T00:38:50.980Z,92.54
2018-07-24T00:39:51.003Z,92.74
2018-07-24T00:40:51.023Z,92.54
2018-07-24T00:41:51.043Z,93.02
2018-07-24T00:42:51.062Z,93.12
2018-07-24T00:43:51.082Z,94.26
2018-07-24T00:44:51.102Z,94.36
2018-07-24T00:45:51.122Z,94.17
2018-07-24T00:46:51.137Z,94.07
2018-07-24T00:47:51.161Z,94.17
2018-07-24T00:48:51.179Z,94.07
2018-07-24T00:49:51.197Z,93.88
2018-07-24T00:50:51.215Z,94.26
2018-07-24T00:51:51.235Z,94.46
2018-07-24T00:52:51.262Z,94.36
2018-07-24T00:53:51.278Z,93.98
2018-07-24T00:54:51.295Z,94.46
2018-07-24T00:55:51.315Z,94.65
2018-07-24T00:56:51.333Z,95.12
2018-07-24T00:57:51.352Z,95.70
2018-07-24T00:58:51.372Z,95.79
2018-07-24T00:59:51.392Z,95.51
2018-07-24T01:00:51.415Z,95.70
2018-07-24T01:01:51.432Z,96.08
2018-07-24T01:02:51.449Z,96.51
2018-07-24T01:03:51.471Z,96.32
2018-07-24T01:04:51.491Z,95.94
2018-07-24T01:05:51.506Z,97.08
2018-07-24T01:06:51.530Z,97.08
2018-07-24T01:07:51.546Z,97.85
2018-07-24T01:08:51.569Z,98.33
2018-07-24T01:09:51.585Z,98.33
2018-07-24T01:10:51.608Z,96.99
2018-07-24T01:11:51.624Z,96.70
2018-07-24T01:12:51.643Z,96.18
2018-07-24T01:13:51.662Z,96.51
2018-07-24T01:14:51.681Z,95.56
2018-07-24T01:15:51.703Z,95.75
2018-07-24T01:16:51.723Z,95.46
2018-07-24T01:17:51.740Z,95.70
2018-07-24T01:18:51.759Z,95.27
2018-07-24T01:19:51.779Z,94.22
2018-07-24T01:20:51.798Z,94.60
2018-07-24T01:21:51.815Z,93.84
2018-07-24T01:22:51.836Z,95.07
2018-07-24T01:23:51.860Z,94.51
2018-07-24T01:24:51.877Z,94.41
2018-07-24T01:25:51.901Z,94.51
2018-07-24T01:26:51.913Z,94.55
2018-07-24T01:27:51.935Z,94.22
2018-07-24T01:28:51.953Z,95.07
2018-07-24T01:29:51.975Z,95.75
2018-07-24T01:30:51.990Z,95.46
2018-07-24T01:31:52.011Z,95.75
2018-07-24T01:32:52.030Z,95.75
2018-07-24T01:33:52.051Z,96.70
2018-07-24T01:34:52.068Z,96.70
2018-07-24T01:35:52.107Z,96.51
2018-07-24T01:36:52.111Z,96.61
2018-07-24T01:37:52.123Z,96.51
2018-07-24T01:38:52.150Z,96.61
2018-07-24T01:39:52.163Z,96.22
2018-07-24T01:40:52.183Z,96.13
2018-07-24T01:41:52.203Z,96.89
2018-07-24T01:42:52.224Z,96.89
2018-07-24T01:43:52.242Z,97.47
2018-07-24T01:44:52.261Z,96.89
2018-07-24T01:45:52.280Z,96.89
2018-07-24T01:46:52.300Z,97.75
2018-07-24T01:47:52.320Z,97.66
2018-07-24T01:48:52.337Z,97.18
2018-07-24T01:49:52.358Z,96.89
2018-07-24T01:50:52.375Z,97.56
2018-07-24T01:51:52.395Z,96.51
2018-07-24T01:52:52.414Z,96.42
2018-07-24T01:53:52.434Z,95.46
2018-07-24T01:54:52.453Z,96.32
2018-07-24T01:55:52.471Z,96.89
2018-07-24T01:56:52.491Z,97.37
2018-07-24T01:57:52.508Z,97.28
2018-07-24T01:58:52.527Z,96.89
2018-07-24T01:59:52.546Z,96.89
2018-07-24T02:00:52.565Z,97.28
2018-07-24T02:01:52.584Z,97.47
2018-07-24T02:02:52.603Z,97.18
2018-07-24T02:03:52.623Z,97.47
2018-07-24T02:04:52.642Z,98.13
2018-07-24T02:05:52.661Z,98.61
2018-07-24T02:06:52.678Z,98.42
2018-07-24T02:07:52.701Z,99.19
2018-07-24T02:08:52.719Z,98.71
2018-07-24T02:09:52.737Z,99.19
2018-07-24T02:10:52.755Z,99.19
2018-07-24T02:11:52.778Z,98.99
2018-07-24T02:12:52.794Z,98.80
2018-07-24T02:13:52.813Z,99.19
2018-07-24T02:14:52.831Z,98.23
2018-07-24T02:15:52.851Z,98.66
2018-07-24T02:16:52.870Z,98.23
2018-07-24T02:17:52.887Z,98.33
2018-07-24T02:18:52.907Z,98.71
2018-07-24T02:19:52.927Z,98.08
2018-07-24T02:20:52.947Z,98.52
2018-07-24T02:21:52.963Z,99.19
2018-07-24T02:22:52.983Z,98.99
2018-07-24T02:23:53.001Z,98.99
2018-07-24T02:24:53.021Z,98.61
2018-07-24T02:25:53.043Z,98.80
2018-07-24T02:26:53.058Z,98.33
2018-07-24T02:27:53.080Z,98.66
2018-07-24T02:28:53.099Z,98.71
2018-07-24T02:29:53.115Z,98.52
2018-07-24T02:30:53.134Z,98.33
2018-07-24T02:31:53.181Z,97.56
2018-07-24T02:32:53.173Z,97.32
2018-07-24T02:33:53.190Z,97.52
2018-07-24T02:34:53.210Z,98.52
2018-07-24T02:35:53.228Z,99.48
2018-07-24T02:36:53.247Z,99.80
2018-07-24T02:37:53.266Z,99.99
2018-07-24T02:38:53.284Z,99.99
2018-07-24T02:39:53.304Z,99.62
2018-07-24T02:40:53.322Z,99.43
2018-07-24T02:41:53.340Z,99.99
2018-07-24T02:42:53.359Z,99.99
2018-07-24T02:43:53.378Z,99.90
2018-07-24T02:44:53.397Z,99.62
2018-07-24T02:45:53.415Z,99.90
2018-07-24T02:46:53.436Z,99.33
2018-07-24T02:47:53.455Z,99.04
2018-07-24T02:48:53.476Z,99.99
2018-07-24T02:49:53.491Z,99.80
2018-07-24T02:50:53.511Z,99.90
2018-07-24T02:51:53.529Z,99.99
2018-07-24T02:52:53.548Z,99.99
2018-07-24T02:53:53.567Z,99.33
2018-07-24T02:54:53.586Z,99.99
2018-07-24T02:55:53.603Z,99.99
2018-07-24T02:56:53.625Z,99.99
2018-07-24T02:57:53.641Z,99.99
2018-07-24T02:58:53.660Z,99.99
2018-07-24T02:59:53.679Z,99.99
2018-07-24T03:00:53.698Z,99.99
2018-07-24T03:01:53.718Z,99.90
2018-07-24T03:02:53.736Z,98.94
2018-07-24T03:03:53.755Z,99.23
2018-07-24T03:04:53.774Z,99.14
2018-07-24T03:05:53.793Z,99.14
2018-07-24T03:06:53.807Z,98.94
2018-07-24T03:07:53.828Z,99.62
2018-07-24T03:08:53.846Z,99.99
2018-07-24T03:09:53.872Z,99.62
2018-07-24T03:10:53.886Z,99.90
2018-07-24T03:11:53.904Z,99.99
2018-07-24T03:12:53.923Z,99.99
2018-07-24T03:13:53.958Z,99.99
2018-07-24T03:14:53.957Z,99.99
2018-07-24T03:15:53.977Z,99.99
2018-07-24T03:16:53.995Z,99.99
2018-07-24T03:17:54.014Z,99.99
2018-07-24T03:18:54.031Z,99.99
2018-07-24T03:19:54.054Z,99.99
2018-07-24T03:20:54.071Z,99.99
2018-07-24T03:21:54.089Z,99.99
2018-07-24T03:22:54.106Z,99.99
2018-07-24T03:23:54.129Z,99.99
2018-07-24T03:24:54.145Z,99.43
2018-07-24T03:25:54.169Z,99.90
2018-07-24T03:26:54.182Z,99.99
2018-07-24T03:27:54.202Z,99.99
2018-07-24T03:28:54.218Z,99.99
2018-07-24T03:29:54.239Z,99.99
2018-07-24T03:30:54.256Z,99.99
2018-07-24T03:31:54.275Z,99.99
2018-07-24T03:32:54.293Z,99.99
2018-07-24T03:33:54.312Z,99.99
2018-07-24T03:34:54.334Z,99.99
2018-07-24T03:35:54.349Z,99.99
2018-07-24T03:36:54.371Z,99.99
2018-07-24T03:37:54.387Z,99.99
2018-07-24T03:38:54.405Z,99.99
2018-07-24T03:39:54.426Z,99.99
2018-07-24T03:40:54.444Z,99.99
2018-07-24T03:41:54.463Z,99.99
2018-07-24T03:42:54.484Z,99.80
2018-07-24T03:43:54.503Z,99.99
2018-07-24T03:44:54.543Z,99.43
2018-07-24T03:45:54.536Z,98.85
2018-07-24T03:46:54.554Z,98.85
2018-07-24T03:47:54.571Z,99.04
2018-07-24T03:48:54.597Z,99.52
2018-07-24T03:49:54.608Z,98.66
2018-07-24T03:50:54.628Z,98.57
2018-07-24T03:51:54.647Z,98.47
2018-07-24T03:52:54.665Z,98.47
2018-07-24T03:53:54.684Z,98.18
2018-07-24T03:54:54.703Z,97.61
2018-07-24T03:55:54.721Z,98.08
2018-07-24T03:56:54.742Z,97.52
2018-07-24T03:57:54.791Z,97.52
2018-07-24T03:58:54.777Z,97.61
2018-07-24T03:59:54.795Z,97.42
2018-07-24T04:00:54.812Z,97.52
2018-07-24T04:01:54.833Z,97.42
2018-07-24T04:02:54.855Z,97.42
2018-07-24T04:03:54.870Z,96.75
2018-07-24T04:04:54.893Z,96.27
2018-07-24T04:05:54.908Z,96.37
2018-07-24T04:06:54.925Z,96.66
2018-07-24T04:07:54.947Z,95.41
2018-07-24T04:08:54.961Z,96.17
2018-07-24T04:09:54.982Z,95.98
2018-07-24T04:10:55.000Z,95.89
2018-07-24T04:11:55.020Z,96.27
2018-07-24T04:12:55.036Z,97.80
2018-07-24T04:13:55.055Z,96.84
2018-07-24T04:14:55.073Z,96.84
2018-07-24T04:15:55.091Z,96.75
2018-07-24T04:16:55.112Z,97.42
2018-07-24T04:17:55.129Z,97.52
2018-07-24T04:18:55.147Z,97.52
2018-07-24T04:19:55.166Z,97.52
2018-07-24T04:20:55.184Z,97.42
2018-07-24T04:21:55.203Z,97.32
2018-07-24T04:22:55.221Z,96.94
2018-07-24T04:23:55.241Z,96.56
2018-07-24T04:24:55.258Z,96.66
2018-07-24T04:25:55.278Z,96.27
2018-07-24T04:26:55.293Z,95.41
2018-07-24T04:27:55.313Z,95.70
2018-07-24T04:28:55.336Z,95.98
2018-07-24T04:29:55.348Z,96.37
2018-07-24T04:30:55.492Z,96.27
2018-07-24T04:31:55.387Z,96.27
2018-07-24T04:32:55.407Z,95.12
2018-07-24T04:33:55.422Z,95.12
2018-07-24T04:34:55.443Z,94.55
2018-07-24T04:35:55.461Z,95.22
2018-07-24T04:36:55.492Z,94.74
2018-07-24T04:37:55.503Z,95.12
2018-07-24T04:38:55.517Z,95.61
2018-07-24T04:39:55.560Z,95.32
2018-07-24T04:40:55.553Z,94.74
2018-07-24T04:41:55.571Z,94.93
2018-07-24T04:42:55.591Z,95.70
2018-07-24T04:43:55.610Z,95.17
2018-07-24T04:44:55.627Z,95.46
2018-07-24T04:45:55.648Z,94.93
2018-07-24T04:46:55.665Z,95.03
2018-07-24T04:47:55.684Z,95.27
2018-07-24T04:48:55.703Z,94.07
2018-07-24T04:49:55.723Z,93.41
2018-07-24T04:50:55.738Z,93.21
2018-07-24T04:51:55.762Z,91.69
2018-07-24T04:52:55.780Z,90.73
2018-07-24T04:53:55.794Z,90.54
2018-07-24T04:54:55.815Z,89.49
2018-07-24T04:55:55.833Z,89.11
2018-07-24T04:56:55.851Z,89.20
2018-07-24T04:57:55.871Z,88.68
2018-07-24T04:58:55.889Z,88.34
2018-07-24T04:59:55.908Z,88.29
2018-07-24T05:00:55.927Z,87.77
2018-07-24T05:01:55.943Z,87.24
2018-07-24T05:02:55.963Z,86.47
2018-07-24T05:03:55.985Z,86.00
2018-07-24T05:04:56.002Z,86.10
2018-07-24T05:05:56.021Z,86.34
2018-07-24T05:06:56.039Z,86.05
2018-07-24T05:07:56.059Z,85.62
2018-07-24T05:08:56.082Z,83.99
2018-07-24T05:09:56.097Z,84.09
2018-07-24T05:10:56.116Z,83.90
2018-07-24T05:11:56.131Z,85.05
2018-07-24T05:12:56.149Z,85.05
2018-07-24T05:13:56.169Z,84.28
2018-07-24T05:14:56.189Z,84.28
2018-07-24T05:15:56.207Z,85.14
2018-07-24T05:16:56.223Z,84.76
2018-07-24T05:17:56.250Z,85.33
2018-07-24T05:18:56.269Z,85.14
2018-07-24T05:19:56.283Z,85.24
2018-07-24T05:20:56.299Z,84.66
2018-07-24T05:21:56.319Z,85.24
2018-07-24T05:22:56.339Z,85.05
2018-07-24T05:23:56.355Z,85.05
2018-07-24T05:24:56.374Z,84.28
2018-07-24T05:25:56.437Z,84.56
2018-07-24T05:26:56.440Z,84.56
2018-07-24T05:27:56.431Z,85.05
2018-07-24T05:28:56.448Z,85.05
2018-07-24T05:29:56.471Z,84.95
2018-07-24T05:30:56.487Z,85.52
2018-07-24T05:31:56.504Z,85.05
2018-07-24T05:32:56.523Z,85.24
2018-07-24T05:33:56.547Z,84.85
2018-07-24T05:34:56.560Z,84.95
2018-07-24T05:35:56.579Z,84.56
2018-07-24T05:36:56.598Z,84.66
2018-07-24T05:37:56.616Z,85.24
2018-07-24T05:38:56.637Z,85.52
2018-07-24T05:39:56.655Z,86.19
2018-07-24T05:40:56.674Z,85.71
2018-07-24T05:41:56.691Z,86.19
2018-07-24T05:42:56.712Z,86.10
2018-07-24T05:43:56.732Z,86.38
2018-07-24T05:44:56.747Z,86.10
2018-07-24T05:45:56.767Z,86.38
2018-07-24T05:46:56.789Z,86.57
2018-07-24T05:47:56.806Z,85.05
2018-07-24T05:48:56.860Z,84.09
2018-07-24T05:49:56.881Z,83.61
2018-07-24T05:50:56.862Z,84.56
2018-07-24T05:51:56.880Z,84.56
2018-07-24T05:52:56.900Z,84.56
2018-07-24T05:53:56.917Z,84.56
2018-07-24T05:54:56.937Z,84.19
2018-07-24T05:55:56.954Z,85.05
2018-07-24T05:56:56.974Z,85.05
2018-07-24T05:57:56.993Z,85.75
2018-07-24T05:58:57.010Z,86.23
2018-07-24T05:59:57.032Z,87.09
2018-07-24T06:00:57.052Z,87.76
2018-07-24T06:01:57.169Z,86.71
2018-07-24T06:02:57.091Z,86.71
2018-07-24T06:03:57.108Z,86.71
2018-07-24T06:04:57.124Z,86.61
2018-07-24T06:05:57.144Z,85.66
2018-07-24T06:06:57.167Z,84.99
2018-07-24T06:07:57.181Z,84.89
2018-07-24T06:08:57.203Z,85.09
2018-07-24T06:09:57.220Z,84.23
2018-07-24T06:10:57.238Z,84.13
2018-07-24T06:11:57.258Z,84.61
2018-07-24T06:12:57.276Z,85.28
2018-07-24T06:13:57.296Z,81.93
2018-07-24T06:14:57.315Z,80.79
2018-07-24T06:15:57.335Z,80.59
2018-07-24T06:16:57.426Z,80.79
2018-07-24T06:17:57.388Z,80.59
2018-07-24T06:18:57.391Z,81.74
2018-07-24T06:19:57.410Z,80.82
2018-07-24T06:20:57.433Z,83.22
2018-07-24T06:21:57.455Z,82.17
2018-07-24T06:22:57.474Z,80.35
2018-07-24T06:23:57.487Z,80.35
2018-07-24T06:24:57.506Z,81.21
2018-07-24T06:25:57.527Z,81.88
2018-07-24T06:26:57.544Z,82.35
2018-07-24T06:27:57.564Z,82.93
2018-07-24T06:28:57.583Z,83.22
2018-07-24T06:29:57.604Z,82.83
2018-07-24T06:30:57.621Z,81.59
2018-07-24T06:31:57.643Z,81.40
2018-07-24T06:32:57.662Z,80.06
2018-07-24T06:33:57.681Z,79.58
2018-07-24T06:34:57.747Z,80.16
2018-07-24T06:35:57.718Z,79.14
2018-07-24T06:36:57.742Z,81.63
2018-07-24T06:37:57.757Z,81.44
2018-07-24T06:38:57.777Z,80.67
2018-07-24T06:39:57.794Z,79.05
2018-07-24T06:40:57.814Z,79.33
2018-07-24T06:41:57.833Z,79.72
2018-07-24T06:42:57.852Z,80.10
2018-07-24T06:43:57.872Z,79.05
2018-07-24T06:44:57.890Z,79.43
2018-07-24T06:45:57.910Z,79.43
2018-07-24T06:46:57.929Z,80.29
2018-07-24T06:47:57.948Z,80.19
2018-07-24T06:48:57.968Z,81.34
2018-07-24T06:49:57.991Z,83.16
2018-07-24T06:50:58.008Z,82.40
2018-07-24T06:51:58.143Z,83.06
2018-07-24T06:52:58.051Z,82.68
2018-07-24T06:53:58.067Z,83.83
2018-07-24T06:54:58.085Z,81.44
2018-07-24T06:55:58.108Z,80.58
2018-07-24T06:56:58.126Z,81.25
2018-07-24T06:57:58.144Z,80.67
2018-07-24T06:58:58.162Z,79.37
2018-07-24T06:59:58.182Z,78.38
2018-07-24T07:00:58.203Z,79.66
2018-07-24T07:01:58.247Z,81.00
2018-07-24T07:02:58.240Z,81.44
2018-07-24T07:03:58.261Z,82.15
2018-07-24T07:04:58.293Z,80.71
2018-07-24T07:05:58.303Z,80.33
2018-07-24T07:06:58.320Z,79.75
2018-07-24T07:07:58.340Z,80.90
2018-07-24T07:08:58.356Z,80.33
2018-07-24T07:09:58.417Z,80.33
2018-07-24T07:10:58.399Z,78.70
2018-07-24T07:11:58.459Z,78.99
2018-07-24T07:12:58.491Z,77.84
2018-07-24T07:13:58.494Z,77.46
2018-07-24T07:14:58.536Z,79.57
2018-07-24T07:15:58.535Z,79.08
2018-07-24T07:16:58.556Z,79.57
2018-07-24T07:17:58.565Z,78.13
2018-07-24T07:18:58.569Z,78.74
2018-07-24T07:19:58.621Z,77.11
2018-07-24T07:20:58.592Z,75.96
2018-07-24T07:21:58.613Z,79.89
2018-07-24T07:22:58.631Z,78.64
2018-07-24T07:23:58.653Z,76.82
2018-07-24T07:24:58.671Z,76.25
2018-07-24T07:25:58.689Z,77.31
2018-07-24T07:26:58.710Z,74.57
2018-07-24T07:27:58.731Z,73.22
2018-07-24T07:28:58.800Z,71.50
2018-07-24T07:29:58.768Z,72.94
2018-07-24T07:30:58.788Z,76.00
2018-07-24T07:31:58.807Z,73.61
2018-07-24T07:32:58.828Z,71.02
2018-07-24T07:33:58.847Z,69.87
2018-07-24T07:34:58.867Z,69.68
2018-07-24T07:35:58.887Z,68.81
2018-07-24T07:36:58.907Z,69.83
2018-07-24T07:37:58.925Z,71.27
2018-07-24T07:38:58.949Z,72.71
2018-07-24T07:39:58.965Z,72.99
2018-07-24T07:40:58.990Z,74.76
2018-07-24T07:41:59.005Z,72.45
2018-07-24T07:42:59.025Z,70.83
2018-07-24T07:43:59.070Z,71.11
2018-07-24T07:44:59.067Z,69.68
2018-07-24T07:45:59.088Z,69.29
2018-07-24T07:46:59.109Z,70.92
2018-07-24T07:47:59.131Z,75.23
2018-07-24T07:48:59.149Z,71.88
2018-07-24T07:49:59.168Z,72.39
2018-07-24T07:50:59.188Z,69.23
2018-07-24T07:51:59.208Z,71.44
2018-07-24T07:52:59.228Z,71.05
2018-07-24T07:53:59.247Z,69.42
2018-07-24T07:54:59.268Z,70.57
2018-07-24T07:55:59.292Z,68.37
2018-07-24T07:56:59.308Z,70.76
2018-07-24T07:57:59.328Z,68.46
2018-07-24T07:58:59.349Z,67.79
2018-07-24T07:59:59.369Z,70.86
2018-07-24T08:00:59.390Z,69.71
2018-07-24T08:01:59.410Z,70.19
2018-07-24T08:02:59.431Z,71.34
2018-07-24T08:03:59.482Z,71.19
2018-07-24T08:04:59.472Z,72.53
2018-07-24T08:05:59.491Z,69.65
2018-07-24T08:06:59.514Z,69.17
2018-07-24T08:07:59.533Z,71.89
2018-07-24T08:08:59.554Z,68.53
2018-07-24T08:09:59.574Z,69.68
2018-07-24T08:10:59.598Z,69.36
2018-07-24T08:11:59.616Z,69.59
2018-07-24T08:12:59.644Z,67.09
2018-07-24T08:13:59.686Z,70.07
2018-07-24T08:14:59.680Z,69.20
2018-07-24T08:15:59.699Z,67.67
2018-07-24T08:16:59.718Z,67.54
2018-07-24T08:17:59.742Z,69.78
2018-07-24T08:18:59.758Z,67.38
2018-07-24T08:19:59.780Z,69.20
2018-07-24T08:20:59.800Z,68.05
2018-07-24T08:21:59.818Z,66.61
2018-07-24T08:22:59.843Z,69.11
2018-07-24T08:23:59.862Z,65.65
2018-07-24T08:24:59.883Z,67.19
2018-07-24T08:25:59.903Z,67.76
2018-07-24T08:26:59.925Z,68.34
2018-07-24T08:27:59.984Z,66.71
2018-07-24T08:28:59.966Z,68.34
2018-07-24T08:29:59.987Z,67.47
2018-07-24T08:31:00.010Z,66.80
2018-07-24T08:32:00.031Z,65.75
2018-07-24T08:33:00.052Z,65.84
2018-07-24T08:34:00.074Z,66.71
2018-07-24T08:35:00.094Z,65.69
2018-07-24T08:36:00.114Z,65.11
2018-07-24T08:37:00.137Z,59.73
2018-07-24T08:38:00.157Z,63.48
2018-07-24T08:39:00.176Z,64.28
2018-07-24T08:40:00.199Z,62.93
2018-07-24T08:41:00.221Z,61.01
2018-07-24T08:42:00.343Z,56.49
2018-07-24T08:43:00.262Z,62.52
2018-07-24T08:44:00.281Z,64.15
2018-07-24T08:45:00.303Z,63.48
2018-07-24T08:46:00.324Z,63.89
2018-07-24T08:47:00.348Z,63.60
2018-07-24T08:48:00.377Z,62.52
2018-07-24T08:49:00.388Z,64.82
2018-07-24T08:50:00.411Z,62.23
2018-07-24T08:51:00.429Z,61.84
2018-07-24T08:52:00.450Z,63.73
2018-07-24T08:53:00.612Z,65.01
2018-07-24T08:54:00.697Z,64.12
2018-07-24T08:55:00.792Z,60.98
2018-07-24T08:56:00.535Z,63.19
2018-07-24T08:57:00.557Z,59.57
2018-07-24T08:58:00.577Z,59.89
2018-07-24T08:59:00.598Z,59.41
2018-07-24T09:00:00.629Z,58.15
2018-07-24T09:01:00.643Z,57.77
2018-07-24T09:02:00.660Z,55.30
2018-07-24T09:03:00.766Z,56.55
2018-07-24T09:04:00.709Z,57.80
2018-07-24T09:05:00.728Z,55.59
2018-07-24T09:06:00.747Z,57.22
2018-07-24T09:07:00.770Z,58.47
2018-07-24T09:08:00.791Z,56.67
2018-07-24T09:09:00.813Z,55.43
2018-07-24T09:10:00.833Z,54.87
2018-07-24T09:11:00.863Z,53.40
2018-07-24T09:12:00.885Z,51.67
2018-07-24T09:13:00.909Z,51.93
2018-07-24T09:14:00.926Z,53.28
2018-07-24T09:15:00.942Z,55.78
2018-07-24T09:16:00.967Z,55.90
2018-07-24T09:17:00.989Z,55.71
2018-07-24T09:18:01.008Z,55.43
2018-07-24T09:19:01.031Z,53.14
2018-07-24T09:20:01.055Z,53.23
2018-07-24T09:21:01.246Z,54.78
2018-07-24T09:22:01.099Z,52.92
2018-07-24T09:23:01.120Z,53.21
2018-07-24T09:24:01.143Z,52.06
2018-07-24T09:25:01.165Z,54.08
2018-07-24T09:26:01.186Z,52.25
2018-07-24T09:27:01.364Z,53.59
2018-07-24T09:28:01.231Z,56.99
2018-07-24T09:29:01.252Z,53.14
2018-07-24T09:30:01.276Z,52.08
2018-07-24T09:31:01.297Z,52.06
2018-07-24T09:32:01.343Z,52.75
2018-07-24T09:33:01.341Z,52.27
2018-07-24T09:34:01.368Z,52.01
2018-07-24T09:35:01.388Z,51.72
2018-07-24T09:36:01.410Z,49.77
2018-07-24T09:37:01.434Z,49.70
2018-07-24T09:38:01.453Z,51.62
2018-07-24T09:39:01.480Z,50.95
2018-07-24T09:40:01.506Z,51.50
2018-07-24T09:41:01.522Z,54.03
2018-07-24T09:42:01.546Z,51.62
2018-07-24T09:43:01.566Z,50.66
2018-07-24T09:44:01.594Z,52.49
2018-07-24T09:45:01.617Z,52.11
2018-07-24T09:46:01.639Z,50.09
2018-07-24T09:47:01.658Z,51.89
2018-07-24T09:48:01.684Z,52.08
2018-07-24T09:49:01.707Z,51.98
2018-07-24T09:50:01.728Z,51.72
2018-07-24T09:51:01.750Z,53.09
2018-07-24T09:52:01.776Z,51.26
2018-07-24T09:53:01.798Z,51.53
2018-07-24T09:54:01.820Z,53.45
2018-07-24T09:55:01.849Z,51.05
2018-07-24T09:56:01.867Z,51.92
2018-07-24T09:57:01.889Z,51.53
2018-07-24T09:58:01.914Z,52.33
2018-07-24T09:59:01.935Z,52.04
2018-07-24T10:00:01.961Z,51.58
2018-07-24T10:01:01.979Z,51.75
2018-07-24T10:02:02.038Z,52.06
2018-07-24T10:03:02.028Z,51.00
2018-07-24T10:04:02.050Z,48.47
2018-07-24T10:05:02.078Z,48.06
2018-07-24T10:06:02.097Z,50.18
2018-07-24T10:07:02.118Z,48.25
2018-07-24T10:08:02.140Z,49.38
2018-07-24T10:09:02.172Z,51.31
2018-07-24T10:10:02.190Z,51.70
2018-07-24T10:11:02.245Z,51.89
2018-07-24T10:12:02.269Z,52.40
2018-07-24T10:13:02.381Z,52.04
2018-07-24T10:14:02.281Z,50.32
2018-07-24T10:15:02.303Z,48.69
2018-07-24T10:16:02.328Z,47.12
2018-07-24T10:17:02.352Z,47.97
2018-07-24T10:18:02.379Z,50.66
2018-07-24T10:19:02.557Z,50.09
2018-07-24T10:20:02.424Z,49.60
2018-07-24T10:21:02.445Z,51.07
2018-07-24T10:22:02.468Z,49.37
2018-07-24T10:23:02.491Z,47.45
2018-07-24T10:24:02.516Z,45.34
2018-07-24T10:25:02.541Z,49.41
2018-07-24T10:26:02.562Z,46.18
2018-07-24T10:27:02.588Z,48.01
2018-07-24T10:28:02.609Z,47.14
2018-07-24T10:29:02.637Z,46.47
2018-07-24T10:30:02.661Z,46.64
2018-07-24T10:31:02.682Z,47.63
2018-07-24T10:32:02.706Z,47.07
2018-07-24T10:33:02.730Z,46.15
2018-07-24T10:34:02.755Z,47.82
2018-07-24T10:35:02.783Z,47.55
2018-07-24T10:36:02.803Z,46.40
2018-07-24T10:37:02.827Z,47.94
2018-07-24T10:38:02.849Z,47.00
2018-07-24T10:39:02.873Z,45.72
2018-07-24T10:40:02.906Z,47.09
2018-07-24T10:41:02.926Z,45.84
2018-07-24T10:42:02.946Z,45.76
2018-07-24T10:43:03.029Z,46.37
2018-07-24T10:44:02.996Z,42.41
2018-07-24T10:45:03.021Z,43.01
2018-07-24T10:46:03.046Z,42.31
2018-07-24T10:47:03.071Z,41.71
2018-07-24T10:48:03.098Z,42.00
2018-07-24T10:49:03.119Z,43.64
2018-07-24T10:50:03.145Z,43.52
2018-07-24T10:51:03.167Z,43.91
2018-07-24T10:52:03.207Z,45.21
2018-07-24T10:53:03.217Z,47.03
2018-07-24T10:54:03.241Z,47.70
2018-07-24T10:55:03.267Z,47.41
2018-07-24T10:56:03.292Z,47.19
2018-07-24T10:57:03.317Z,47.97
2018-07-24T10:58:03.342Z,48.93
2018-07-24T10:59:03.367Z,48.71
2018-07-24T11:00:03.394Z,49.41
2018-07-24T11:01:03.418Z,49.02
2018-07-24T11:02:03.438Z,50.09
2018-07-24T11:03:03.465Z,49.15
2018-07-24T11:04:03.491Z,49.39
2018-07-24T11:05:03.518Z,47.96
2018-07-24T11:06:03.538Z,46.15
2018-07-24T11:07:03.566Z,47.53
2018-07-24T11:08:03.589Z,45.96
2018-07-24T11:09:03.615Z,44.32
2018-07-24T11:10:03.639Z,45.17
2018-07-24T11:11:03.740Z,46.18
2018-07-24T11:12:03.688Z,47.12
2018-07-24T11:13:03.714Z,47.67
2018-07-24T11:14:03.787Z,50.04
2018-07-24T11:15:03.764Z,49.87
2018-07-24T11:16:03.790Z,50.57
2018-07-24T11:17:03.819Z,50.27
2018-07-24T11:18:03.839Z,50.49
2018-07-24T11:19:03.867Z,47.82
2018-07-24T11:20:03.889Z,46.97
2018-07-24T11:21:03.914Z,47.58
2018-07-24T11:22:04.123Z,45.76
2018-07-24T11:23:04.032Z,44.90
2018-07-24T11:24:03.990Z,45.67
2018-07-24T11:25:04.016Z,43.33
2018-07-24T11:26:04.040Z,44.46
2018-07-24T11:27:04.069Z,45.20
2018-07-24T11:28:04.091Z,47.85
2018-07-24T11:29:04.119Z,45.99
2018-07-24T11:30:04.138Z,46.25
2018-07-24T11:31:04.164Z,47.72
2018-07-24T11:32:04.191Z,47.17
2018-07-24T11:33:04.309Z,46.92
2018-07-24T11:34:04.248Z,46.27
2018-07-24T11:35:04.268Z,43.10
2018-07-24T11:36:04.480Z,40.28
2018-07-24T11:37:04.322Z,42.79
2018-07-24T11:38:04.341Z,41.85
2018-07-24T11:39:04.366Z,37.96
2018-07-24T11:40:04.396Z,38.91
2018-07-24T11:41:04.504Z,41.15
2018-07-24T11:42:04.442Z,40.20
2018-07-24T11:43:04.469Z,39.72
2018-07-24T11:44:04.570Z,42.45
2018-07-24T11:45:04.519Z,39.45
2018-07-24T11:46:04.550Z,37.98
2018-07-24T11:47:04.581Z,39.90
2018-07-24T11:48:04.596Z,40.19
2018-07-24T11:49:04.624Z,40.38
2018-07-24T11:50:04.647Z,39.59
2018-07-24T11:51:04.682Z,40.78
2018-07-24T11:52:04.702Z,39.36
2018-07-24T11:53:04.727Z,42.08
2018-07-24T11:54:04.753Z,38.93
2018-07-24T11:55:04.777Z,35.94
2018-07-24T11:56:04.803Z,36.52
2018-07-24T11:57:04.846Z,35.75
2018-07-24T11:58:04.855Z,36.04
2018-07-24T11:59:04.883Z,35.33
2018-07-24T12:00:04.910Z,37.48
2018-07-24T12:01:04.939Z,37.09
2018-07-24T12:02:04.963Z,35.80
2018-07-24T12:03:04.990Z,37.46
2018-07-24T12:04:05.016Z,36.58
2018-07-24T12:05:05.045Z,37.15
2018-07-24T12:06:05.071Z,37.65
2018-07-24T12:07:05.102Z,35.35
2018-07-24T12:08:05.126Z,35.81
2018-07-24T12:09:05.151Z,36.40
2018-07-24T12:10:05.176Z,37.15
2018-07-24T12:11:05.207Z,38.73
2018-07-24T12:12:05.231Z,37.59
2018-07-24T12:13:05.259Z,36.16
2018-07-24T12:14:05.288Z,32.94
2018-07-24T12:15:05.388Z,32.75
2018-07-24T12:16:05.342Z,35.17
2018-07-24T12:17:05.373Z,35.66
2018-07-24T12:18:05.396Z,34.54
2018-07-24T12:19:05.426Z,36.69
2018-07-24T12:20:05.454Z,37.77
2018-07-24T12:21:05.482Z,38.46
2018-07-24T12:22:05.507Z,37.62
2018-07-24T12:23:05.533Z,37.85
2018-07-24T12:24:05.562Z,37.62
2018-07-24T12:25:05.591Z,36.76
2018-07-24T12:26:05.615Z,35.76
2018-07-24T12:27:05.683Z,37.42
2018-07-24T12:28:05.672Z,35.18
2018-07-24T12:29:05.703Z,36.26
2018-07-24T12:30:05.727Z,35.08
2018-07-24T12:31:05.754Z,36.61
2018-07-24T12:32:05.783Z,37.79
2018-07-24T12:33:05.811Z,37.02
2018-07-24T12:34:05.837Z,37.62
2018-07-24T12:35:05.864Z,36.36
2018-07-24T12:36:05.929Z,37.02
2018-07-24T12:37:05.918Z,36.53
2018-07-24T12:38:05.943Z,37.77
2018-07-24T12:39:05.974Z,38.58
2018-07-24T12:40:06.001Z,36.65
2018-07-24T12:41:06.030Z,35.70
2018-07-24T12:42:06.074Z,35.41
2018-07-24T12:43:06.084Z,35.02
2018-07-24T12:44:06.124Z,34.73
2018-07-24T12:45:06.135Z,35.29
2018-07-24T12:46:06.161Z,35.74
2018-07-24T12:47:06.191Z,37.60
2018-07-24T12:48:06.217Z,36.61
2018-07-24T12:49:06.245Z,36.44
2018-07-24T12:50:06.272Z,35.18
2018-07-24T12:51:06.298Z,36.63
2018-07-24T12:52:06.325Z,35.29
2018-07-24T12:53:06.354Z,34.00